Time;durP1;ratioP1;P1;durP2;ratioP2;P2;SDS_P1;SDS_P2;PMS_P1;PMS_P2;Temp;Humidity;BMP_temperature;BMP_pressure;BME280_temperature;BME280_humidity;BME280_pressure;Samples;Min_cycle;Max_cycle;Signal;HPM_P1;HPM_P2
2024/01/16 00:01:10;;;;;;;112.85;101.90;;;5.30;82.30;;;;;;12604092;28;20051;-76
2024/01/16 00:07:17;;;;;;;76.25;68.43;;;5.30;82.10;;;;;;12603901;28;20425;-76
2024/01/16 00:20:08;;;;;;;77.90;61.30;;;4.90;82.20;;;;;;12586439;28;20344;-77
2024/01/16 00:26:22;;;;;;;78.07;69.93;;;4.90;82.20;;;;;;12603462;28;20028;-77
2024/01/16 00:32:27;;;;;;;74.90;66.70;;;4.70;82.20;;;;;;12603304;28;20032;-77
2024/01/16 00:38:56;;;;;;;80.47;68.68;;;4.40;82.50;;;;;;12603046;28;20044;-77
2024/01/16 00:44:58;;;;;;;68.03;59.05;;;4.40;82.70;;;;;;12602989;28;20031;-76
2024/01/16 00:51:23;;;;;;;81.07;70.93;;;4.50;82.80;;;;;;12602946;28;20028;-77
2024/01/16 00:57:26;;;;;;;92.97;83.15;;;4.60;82.50;;;;;;12611785;28;20348;-76
2024/01/16 01:03:46;;;;;;;101.00;90.82;;;4.70;82.00;;;;;;12611825;28;20035;-77
2024/01/16 01:09:48;;;;;;;93.25;83.95;;;4.90;82.10;;;;;;12611652;28;20032;-77
2024/01/16 01:15:49;;;;;;;90.60;80.90;;;4.90;82.30;;;;;;12611122;28;20340;-77
2024/01/16 01:21:51;;;;;;;87.88;78.95;;;5.00;82.50;;;;;;12610981;28;20444;-77
2024/01/16 01:27:53;;;;;;;82.90;74.07;;;5.00;82.40;;;;;;12610786;28;20036;-76
2024/01/16 01:33:54;;;;;;;72.57;61.20;;;4.60;82.30;;;;;;12593144;28;20055;-77
2024/01/16 01:39:56;;;;;;;73.93;63.63;;;4.20;82.80;;;;;;12610871;28;20024;-77
2024/01/16 01:46:12;;;;;;;84.18;75.47;;;4.20;82.70;;;;;;12592016;28;20348;-77
2024/01/16 01:52:13;;;;;;;87.20;76.40;;;4.40;82.30;;;;;;12609545;28;20047;-77
2024/01/16 01:58:15;;;;;;;86.43;77.60;;;4.50;81.80;;;;;;12592398;28;20411;-76
2024/01/16 02:04:18;;;;;;;87.68;69.65;;;4.50;81.70;;;;;;12590879;28;20463;-76
2024/01/16 02:10:20;;;;;;;83.47;73.22;;;4.60;82.60;;;;;;12608708;28;20059;-76
2024/01/16 02:16:23;;;;;;;86.10;76.95;;;4.70;83.10;;;;;;12590660;28;20047;-76
2024/01/16 02:22:38;;;;;;;67.53;60.67;;;4.70;82.80;;;;;;12608125;28;20321;-76
2024/01/16 02:28:40;;;;;;;76.85;68.40;;;4.70;82.70;;;;;;12590212;28;20047;-76
2024/01/16 02:34:41;;;;;;;62.25;55.90;;;4.40;82.60;;;;;;12589646;28;20059;-77
2024/01/16 02:40:43;;;;;;;63.97;57.80;;;4.30;82.50;;;;;;12607072;28;20036;-77
2024/01/16 02:46:45;;;;;;;68.97;59.90;;;4.10;82.20;;;;;;12607539;28;20028;-77
2024/01/16 02:52:46;;;;;;;53.10;47.45;;;3.90;82.70;;;;;;12589475;28;20040;-76
2024/01/16 02:58:48;;;;;;;56.60;50.50;;;4.00;82.60;;;;;;12572210;28;20369;-76
2024/01/16 03:04:51;;;;;;;53.53;48.80;;;4.20;82.30;;;;;;12606066;28;20039;-77
2024/01/16 03:10:52;;;;;;;55.13;45.22;;;4.00;82.00;;;;;;12588044;28;20443;-76
2024/01/16 03:16:55;;;;;;;51.20;42.65;;;3.90;82.50;;;;;;12604775;28;20430;-77
2024/01/16 03:22:56;;;;;;;64.70;57.25;;;4.00;82.50;;;;;;12605309;28;20425;-77
2024/01/16 03:28:58;;;;;;;50.13;43.75;;;4.10;82.00;;;;;;12605978;28;20039;-77
2024/01/16 03:35:00;;;;;;;60.45;53.92;;;4.20;81.80;;;;;;12587660;28;20036;-76
2024/01/16 03:41:03;;;;;;;67.32;61.13;;;4.30;81.50;;;;;;12604665;28;20036;-77
2024/01/16 03:47:05;;;;;;;59.33;53.50;;;4.50;81.20;;;;;;12604503;28;20033;-77
2024/01/16 03:53:06;;;;;;;58.88;52.83;;;4.60;81.00;;;;;;12604212;28;20039;-77
2024/01/16 03:59:08;;;;;;;66.55;58.55;;;4.60;80.70;;;;;;12604038;28;20416;-76
2024/01/16 04:05:09;;;;;;;72.47;65.68;;;4.50;81.00;;;;;;12603963;28;20364;-76
2024/01/16 04:11:14;;;;;;;93.90;84.72;;;4.70;81.80;;;;;;12603849;28;20043;-76
2024/01/16 04:17:16;;;;;;;54.40;48.53;;;4.90;81.60;;;;;;12585834;28;20044;-76
2024/01/16 04:23:18;;;;;;;93.28;85.00;;;5.10;81.80;;;;;;12569361;28;20044;-76
2024/01/16 04:29:19;;;;;;;94.40;84.75;;;5.20;82.50;;;;;;12611545;28;20028;-76
2024/01/16 04:35:21;;;;;;;94.40;86.25;;;5.40;82.00;;;;;;12613127;28;20024;-76
2024/01/16 04:41:23;;;;;;;67.40;60.20;;;5.50;81.30;;;;;;12578569;28;20032;-77
2024/01/16 04:47:25;;;;;;;68.60;61.35;;;5.40;80.60;;;;;;12612653;28;20043;-77
2024/01/16 04:53:27;;;;;;;63.15;56.58;;;5.30;80.20;;;;;;12578562;28;20051;-76
2024/01/16 04:59:30;;;;;;;56.33;50.95;;;5.20;79.90;;;;;;12612320;28;20028;-76
2024/01/16 05:05:32;;;;;;;80.45;73.80;;;5.20;79.90;;;;;;12611756;28;20458;-76
2024/01/16 05:11:34;;;;;;;59.38;53.63;;;5.00;79.80;;;;;;12594388;28;20043;-76
2024/01/16 05:17:35;;;;;;;55.55;50.15;;;5.20;80.10;;;;;;12611168;28;20029;-74
2024/01/16 05:23:37;;;;;;;97.40;91.15;;;5.30;79.90;;;;;;12593852;28;20040;-74
2024/01/16 05:29:41;;;;;;;73.80;68.07;;;5.40;80.10;;;;;;12592953;28;20039;-74
2024/01/16 05:35:42;;;;;;;67.18;61.42;;;5.60;79.90;;;;;;12610423;28;20055;-74
2024/01/16 05:41:44;;;;;;;68.43;63.22;;;5.50;79.60;;;;;;12609489;28;20047;-74
2024/01/16 05:47:46;;;;;;;41.97;37.67;;;5.20;79.70;;;;;;12609906;28;20039;-74
2024/01/16 05:53:47;;;;;;;43.75;39.50;;;5.20;80.20;;;;;;12592479;28;20047;-74
2024/01/16 05:59:49;;;;;;;62.42;56.97;;;5.40;80.10;;;;;;12609642;28;20356;-74
2024/01/16 06:05:51;;;;;;;51.35;47.53;;;5.40;79.70;;;;;;12609064;28;20036;-77
2024/01/16 06:11:52;;;;;;;52.50;47.55;;;5.50;79.50;;;;;;12608794;28;20033;-76
2024/01/16 06:17:54;;;;;;;69.05;64.53;;;5.50;79.40;;;;;;12608385;28;20039;-76
2024/01/16 06:23:56;;;;;;;68.57;64.18;;;5.60;79.00;;;;;;12608090;28;20052;-74
2024/01/16 06:29:57;;;;;;;41.53;38.33;;;5.50;78.90;;;;;;12607870;28;20037;-74
2024/01/16 06:36:03;;;;;;;52.33;47.20;;;5.40;78.90;;;;;;12607394;28;20039;-74
2024/01/16 06:42:07;;;;;;;69.88;62.42;;;5.40;79.10;;;;;;12589647;28;20029;-74
2024/01/16 06:48:10;;;;;;;62.05;56.33;;;5.40;78.90;;;;;;12606689;28;20356;-74
2024/01/16 06:54:15;;;;;;;77.97;72.07;;;5.50;78.70;;;;;;12588048;28;20037;-74
2024/01/16 07:00:22;;;;;;;64.05;59.05;;;5.50;78.70;;;;;;12594335;22;20044;-74
2024/01/16 07:06:24;;;;;;;63.00;58.85;;;5.50;78.70;;;;;;12638929;28;20336;-74
2024/01/16 07:12:26;;;;;;;60.65;55.95;;;5.70;79.20;;;;;;12656115;28;20035;-74
2024/01/16 07:18:28;;;;;;;53.22;49.55;;;5.80;79.10;;;;;;12655736;28;20043;-74
2024/01/16 07:24:32;;;;;;;50.13;46.85;;;5.70;79.00;;;;;;12655646;28;20356;-74
2024/01/16 07:30:39;;;;;;;46.05;42.92;;;5.60;79.30;;;;;;12637405;28;20047;-74
2024/01/16 07:36:43;;;;;;;66.03;62.38;;;5.70;79.60;;;;;;12637229;28;20040;-74
2024/01/16 07:42:45;;;;;;;34.42;31.77;;;5.80;79.80;;;;;;12654871;28;20035;-73
2024/01/16 07:48:46;;;;;;;45.38;42.63;;;5.70;79.70;;;;;;12655271;28;20024;-74
2024/01/16 07:54:48;;;;;;;43.55;41.15;;;5.70;80.50;;;;;;12654555;28;20028;-74
2024/01/16 08:00:50;;;;;;;43.83;41.22;;;5.90;80.50;;;;;;12653918;28;20039;-74
2024/01/16 08:06:52;;;;;;;46.53;43.83;;;5.90;80.90;;;;;;12637233;28;20061;-74
2024/01/16 08:12:54;;;;;;;37.70;35.40;;;6.10;81.20;;;;;;12653633;28;20448;-74
2024/01/16 08:18:56;;;;;;;50.70;48.00;;;6.20;81.30;;;;;;12654302;28;20039;-74
2024/01/16 08:24:58;;;;;;;61.65;58.45;;;6.20;81.30;;;;;;12635641;28;20036;-74
2024/01/16 08:31:00;;;;;;;38.35;36.20;;;6.20;82.10;;;;;;12653325;28;20027;-74
2024/01/16 08:37:03;;;;;;;31.30;29.45;;;6.20;82.20;;;;;;12634874;28;20055;-74
2024/01/16 08:43:05;;;;;;;70.82;67.13;;;6.20;82.50;;;;;;12635036;28;20348;-74
2024/01/16 08:49:06;;;;;;;56.75;53.80;;;6.40;82.80;;;;;;12634991;28;20433;-74
2024/01/16 08:55:09;;;;;;;11.75;10.55;;;6.30;83.00;;;;;;12634813;28;20352;-74
2024/01/16 09:01:11;;;;;;;39.53;37.40;;;6.40;83.60;;;;;;12635206;28;20043;-74
2024/01/16 09:07:15;;;;;;;66.68;63.33;;;6.30;83.80;;;;;;12634674;28;20035;-74
2024/01/16 09:13:17;;;;;;;13.18;12.15;;;6.20;83.90;;;;;;12636560;28;20032;-74
2024/01/16 09:19:32;;;;;;;41.97;39.22;;;6.20;84.30;;;;;;12626517;28;20035;-74
2024/01/16 09:25:34;;;;;;;38.38;35.92;;;6.10;84.20;;;;;;12624796;28;20054;-73
2024/01/16 09:31:36;;;;;;;17.52;16.08;;;6.10;84.60;;;;;;12661337;28;20032;-74
2024/01/16 09:37:39;;;;;;;23.17;21.65;;;6.00;84.70;;;;;;12660438;28;20036;-74
2024/01/16 09:43:42;;;;;;;19.23;17.70;;;6.10;84.80;;;;;;12642349;28;20044;-74
2024/01/16 09:49:48;;;;;;;58.50;55.63;;;6.10;84.30;;;;;;12659960;28;20387;-73
2024/01/16 09:55:51;;;;;;;49.67;47.22;;;6.10;85.30;;;;;;12659737;28;20432;-74
2024/01/16 10:01:56;;;;;;;18.27;17.05;;;6.20;85.30;;;;;;12624432;28;20052;-74
2024/01/16 10:07:59;;;;;;;23.23;21.63;;;6.30;85.10;;;;;;12608392;28;20336;-74
2024/01/16 10:14:01;;;;;;;64.72;61.78;;;6.50;85.50;;;;;;12591359;28;20055;-74
2024/01/16 10:20:04;;;;;;;21.95;20.50;;;6.60;85.50;;;;;;12608367;28;20028;-75
2024/01/16 10:26:07;;;;;;;26.25;24.42;;;6.60;85.40;;;;;;12590752;28;20334;-75
2024/01/16 10:32:09;;;;;;;23.30;21.77;;;6.90;85.40;;;;;;12607750;28;20029;-74
2024/01/16 10:38:21;;;;;;;43.60;41.33;;;7.00;85.40;;;;;;12607494;28;20036;-74
2024/01/16 10:44:23;;;;;;;40.00;37.83;;;7.10;85.40;;;;;;12607150;28;20032;-74
2024/01/16 10:50:24;;;;;;;51.20;48.72;;;7.20;85.50;;;;;;12606947;28;20040;-74
2024/01/16 10:56:29;;;;;;;96.35;91.70;;;7.30;85.80;;;;;;12607813;28;20043;-74
2024/01/16 11:02:50;;;;;;;96.28;92.28;;;7.50;85.60;;;;;;12606292;28;20040;-74
2024/01/16 11:08:53;;;;;;;60.65;57.97;;;7.50;85.20;;;;;;12588256;28;20039;-75
2024/01/16 11:15:01;;;;;;;51.00;48.60;;;7.50;85.60;;;;;;12605755;28;20341;-74
2024/01/16 11:21:16;;;;;;;59.25;56.42;;;7.60;85.30;;;;;;12587714;28;20032;-74
2024/01/16 11:27:22;;;;;;;91.50;87.50;;;7.60;85.60;;;;;;12587510;28;20037;-76
2024/01/16 11:33:33;;;;;;;55.88;53.38;;;7.70;84.70;;;;;;12605004;28;20035;-76
2024/01/16 11:39:35;;;;;;;106.38;101.88;;;7.60;85.10;;;;;;12586934;28;20036;-76
2024/01/16 11:45:37;;;;;;;59.45;56.53;;;7.40;85.00;;;;;;12604581;28;20487;-76
2024/01/16 11:51:41;;;;;;;45.05;42.63;;;7.40;85.20;;;;;;12625207;28;20047;-76
2024/01/16 11:58:07;;;;;;;88.97;85.18;;;7.60;85.30;;;;;;12636267;28;20352;-75
2024/01/16 12:04:09;;;;;;;106.65;102.35;;;8.00;85.20;;;;;;12654244;28;20440;-76
2024/01/16 12:10:11;;;;;;;99.82;95.75;;;8.20;84.50;;;;;;12654085;28;20340;-75
2024/01/16 12:16:19;;;;;;;81.07;77.75;;;8.20;84.70;;;;;;12635905;28;20094;-76
2024/01/16 12:22:23;;;;;;;30.83;28.83;;;8.20;84.80;;;;;;12654269;28;20031;-76
2024/01/16 12:28:26;;;;;;;59.65;57.20;;;8.50;84.80;;;;;;12652475;28;20032;-75
2024/01/16 12:34:28;;;;;;;26.95;25.48;;;8.70;84.50;;;;;;12653342;28;20039;-75
2024/01/16 12:40:30;;;;;;;34.70;32.90;;;8.80;84.00;;;;;;12653470;28;20039;-75
2024/01/16 12:46:32;;;;;;;23.25;21.95;;;8.90;84.30;;;;;;12653299;28;20035;-75
2024/01/16 12:52:34;;;;;;;36.58;34.90;;;9.10;84.40;;;;;;12662529;28;20035;-75
2024/01/16 12:58:37;;;;;;;33.80;32.10;;;9.30;84.10;;;;;;12663312;28;20032;-76
2024/01/16 13:04:38;;;;;;;29.83;28.42;;;9.60;84.00;;;;;;12662283;28;20463;-75
2024/01/16 13:10:40;;;;;;;26.80;25.38;;;9.70;83.90;;;;;;12643669;28;20074;-75
2024/01/16 13:16:42;;;;;;;13.68;12.40;;;9.80;83.10;;;;;;12661088;28;20028;-76
2024/01/16 13:22:43;;;;;;;13.90;12.70;;;9.50;83.30;;;;;;12661458;28;20310;-76
2024/01/16 13:28:47;;;;;;;14.70;13.68;;;9.50;83.90;;;;;;12692302;28;20329;-76
2024/01/16 13:34:49;;;;;;;14.00;13.07;;;9.70;83.90;;;;;;12711222;28;20050;-74
2024/01/16 13:40:51;;;;;;;21.58;20.38;;;9.70;83.90;;;;;;12710733;28;20052;-74
2024/01/16 13:46:59;;;;;;;17.10;16.02;;;9.70;84.00;;;;;;12711059;28;20042;-74
2024/01/16 13:53:02;;;;;;;29.47;27.93;;;9.70;84.00;;;;;;12692510;28;20047;-74
2024/01/16 13:59:03;;;;;;;15.45;14.32;;;9.70;84.20;;;;;;12709386;28;20020;-74
2024/01/16 14:05:05;;;;;;;28.10;26.70;;;9.70;84.40;;;;;;12709976;28;20040;-74
2024/01/16 14:11:07;;;;;;;21.77;20.63;;;9.70;84.30;;;;;;12674681;28;20037;-75
2024/01/16 14:17:08;;;;;;;12.38;11.43;;;9.70;84.40;;;;;;12691192;28;20046;-75
2024/01/16 14:23:10;;;;;;;38.72;36.92;;;9.70;84.30;;;;;;12709209;28;20024;-74
2024/01/16 14:29:13;;;;;;;20.60;19.30;;;9.90;84.40;;;;;;12673838;28;20040;-75
2024/01/16 14:35:17;;;;;;;35.90;34.08;;;10.20;83.90;;;;;;12673531;28;20035;-75
2024/01/16 14:41:19;;;;;;;9.38;7.75;;;10.30;83.70;;;;;;12708263;28;20042;-74
2024/01/16 14:47:21;;;;;;;12.25;11.27;;;10.50;84.20;;;;;;12673592;28;20039;-75
2024/01/16 14:53:23;;;;;;;12.00;10.93;;;10.50;84.30;;;;;;12707777;28;20359;-74
2024/01/16 14:59:25;;;;;;;8.02;5.43;;;10.40;85.00;;;;;;12663313;22;20040;-75
2024/01/16 15:05:26;;;;;;;17.20;15.35;;;10.40;84.70;;;;;;12605460;28;20499;-75
2024/01/16 15:11:28;;;;;;;24.23;22.00;;;10.20;84.90;;;;;;12604691;28;20040;-75
2024/01/16 15:17:30;;;;;;;33.80;31.45;;;10.00;85.20;;;;;;12604946;28;20044;-75
2024/01/16 15:23:33;;;;;;;37.83;34.83;;;9.80;85.10;;;;;;12588043;28;20121;-76
2024/01/16 15:29:35;;;;;;;73.43;69.97;;;9.60;85.10;;;;;;12570657;28;20048;-74
2024/01/16 15:35:37;;;;;;;57.45;54.28;;;9.50;85.00;;;;;;12587404;28;20032;-74
2024/01/16 15:41:39;;;;;;;43.05;40.63;;;9.20;85.00;;;;;;12603304;28;20040;-74
2024/01/16 15:47:41;;;;;;;33.72;31.42;;;9.00;85.30;;;;;;12586591;28;20033;-73
2024/01/16 15:53:43;;;;;;;36.05;33.72;;;8.80;85.00;;;;;;12586961;28;20036;-74
2024/01/16 15:59:45;;;;;;;33.03;30.85;;;8.80;85.10;;;;;;12586487;28;20036;-74
2024/01/16 16:05:47;;;;;;;45.45;42.80;;;8.70;85.00;;;;;;12603853;28;20028;-74
2024/01/16 16:11:49;;;;;;;52.78;50.08;;;8.70;85.20;;;;;;12585955;28;20051;-74
2024/01/16 16:17:51;;;;;;;36.38;34.03;;;8.50;85.50;;;;;;12603475;28;20043;-74
2024/01/16 16:23:55;;;;;;;47.05;43.90;;;8.50;85.00;;;;;;12608726;28;20031;-74
2024/01/16 16:29:57;;;;;;;42.50;40.03;;;8.20;85.00;;;;;;12595875;28;20043;-74
2024/01/16 16:35:59;;;;;;;39.45;36.88;;;8.40;85.10;;;;;;12595805;28;20045;-74
2024/01/16 16:42:01;;;;;;;43.80;41.03;;;8.60;84.40;;;;;;12595094;28;20036;-74
2024/01/16 16:48:03;;;;;;;30.13;27.95;;;8.20;84.50;;;;;;12613293;28;20043;-75
2024/01/16 16:54:05;;;;;;;67.63;63.95;;;8.00;84.90;;;;;;12612389;28;20037;-75
2024/01/16 17:00:08;;;;;;;53.20;50.05;;;8.20;85.20;;;;;;12594395;28;20356;-75
2024/01/16 17:06:10;;;;;;;56.97;53.70;;;8.60;84.80;;;;;;12612535;28;20433;-76
2024/01/16 17:12:13;;;;;;;52.17;48.83;;;8.70;84.10;;;;;;12611562;28;20036;-75
2024/01/16 17:18:14;;;;;;;78.97;74.25;;;8.70;84.20;;;;;;12593463;28;20464;-75
2024/01/16 17:24:16;;;;;;;63.00;58.92;;;8.80;84.10;;;;;;12593034;28;20041;-75
2024/01/16 17:30:18;;;;;;;69.28;64.82;;;8.70;83.90;;;;;;12593651;28;20051;-76
2024/01/16 17:36:20;;;;;;;77.30;72.93;;;8.70;83.70;;;;;;12609220;28;20033;-76
2024/01/16 17:42:22;;;;;;;68.90;64.97;;;8.70;83.70;;;;;;12610043;28;20035;-76
2024/01/16 17:48:25;;;;;;;45.42;42.22;;;8.70;83.50;;;;;;12592789;28;20047;-76
2024/01/16 17:54:27;;;;;;;39.75;36.95;;;8.70;83.20;;;;;;12575298;28;20048;-75
2024/01/16 18:00:31;;;;;;;52.72;49.90;;;8.60;83.50;;;;;;12591901;28;20429;-76
2024/01/16 18:06:34;;;;;;;56.22;52.75;;;8.70;84.00;;;;;;12592043;28;20353;-74
2024/01/16 18:12:39;;;;;;;53.55;50.30;;;8.70;84.10;;;;;;12608130;28;20028;-75
2024/01/16 18:18:41;;;;;;;55.20;51.50;;;8.70;83.70;;;;;;12608655;28;20036;-75
2024/01/16 18:24:43;;;;;;;67.55;63.55;;;8.70;83.60;;;;;;12573875;28;20032;-76
2024/01/16 18:30:45;;;;;;;61.15;57.65;;;8.50;83.40;;;;;;12590354;28;20040;-76
2024/01/16 18:36:50;;;;;;;80.60;76.05;;;8.60;83.50;;;;;;12607592;28;20041;-76
2024/01/16 18:42:52;;;;;;;96.30;91.18;;;8.50;83.20;;;;;;12607137;28;20028;-75
2024/01/16 18:48:54;;;;;;;43.45;39.92;;;8.50;83.20;;;;;;12607040;28;20033;-76
2024/01/16 18:54:55;;;;;;;63.13;59.03;;;8.30;83.30;;;;;;12606506;28;20036;-75
2024/01/16 19:00:59;;;;;;;54.72;50.92;;;8.30;83.40;;;;;;12589313;28;20032;-75
2024/01/16 19:07:11;;;;;;;36.17;33.00;;;8.30;83.30;;;;;;12606017;28;20032;-75
2024/01/16 19:13:14;;;;;;;51.97;47.75;;;8.20;83.30;;;;;;12604417;28;20480;-75
2024/01/16 19:19:17;;;;;;;37.65;33.45;;;8.30;83.60;;;;;;12588319;28;20032;-75
2024/01/16 19:25:21;;;;;;;46.80;42.90;;;8.40;83.40;;;;;;12605972;28;20029;-75
2024/01/16 19:31:23;;;;;;;72.05;67.10;;;8.40;83.30;;;;;;12587840;28;20029;-75
2024/01/16 19:37:24;;;;;;;55.28;51.55;;;8.40;83.30;;;;;;12554640;28;20475;-76
2024/01/16 19:43:26;;;;;;;52.58;48.88;;;8.40;83.60;;;;;;12604550;28;20036;-76
2024/01/16 19:49:28;;;;;;;59.42;55.35;;;8.40;83.30;;;;;;12605105;28;20330;-76
2024/01/16 19:55:30;;;;;;;78.68;73.50;;;8.30;83.50;;;;;;12604191;28;20032;-76
2024/01/16 20:01:32;;;;;;;57.70;54.03;;;8.40;83.30;;;;;;12604036;28;20033;-76
2024/01/16 20:07:34;;;;;;;56.05;52.13;;;8.30;83.10;;;;;;12586178;28;20040;-76
2024/01/16 20:13:36;;;;;;;58.60;54.47;;;8.20;83.20;;;;;;12603848;28;20041;-76
2024/01/16 20:19:38;;;;;;;71.63;66.82;;;8.30;83.30;;;;;;12603692;28;20348;-76
2024/01/16 20:25:40;;;;;;;51.85;48.28;;;8.30;83.00;;;;;;12586329;28;20065;-76
2024/01/16 20:31:44;;;;;;;53.45;48.58;;;8.30;83.00;;;;;;12576631;28;20028;-76
2024/01/16 20:37:45;;;;;;;32.42;29.17;;;8.10;83.10;;;;;;12553304;28;20044;-76
2024/01/16 20:43:47;;;;;;;46.45;42.70;;;8.00;83.40;;;;;;12553333;28;20032;-77
2024/01/16 20:49:49;;;;;;;43.72;39.17;;;8.00;83.50;;;;;;12553813;28;20326;-76
2024/01/16 20:55:51;;;;;;;50.50;46.03;;;8.10;83.40;;;;;;12535330;28;20450;-76
2024/01/16 21:01:54;;;;;;;67.32;63.05;;;8.20;83.70;;;;;;12554667;28;20037;-76
2024/01/16 21:07:55;;;;;;;38.60;35.10;;;8.20;83.50;;;;;;12552711;28;20068;-74
2024/01/16 21:13:58;;;;;;;42.03;37.58;;;8.30;83.20;;;;;;12561742;28;20032;-74
2024/01/16 21:19:59;;;;;;;49.10;45.40;;;8.20;83.20;;;;;;12561483;28;20040;-75
2024/01/16 21:26:02;;;;;;;57.10;53.35;;;8.20;83.00;;;;;;12561301;28;20041;-77
2024/01/16 21:32:04;;;;;;;31.27;28.17;;;8.10;83.20;;;;;;12543371;28;20036;-76
2024/01/16 21:38:06;;;;;;;62.92;58.47;;;8.10;83.30;;;;;;12560729;28;20325;-76
2024/01/16 21:44:08;;;;;;;57.95;53.90;;;8.10;83.30;;;;;;12560519;28;20461;-76
2024/01/16 21:50:11;;;;;;;32.22;29.05;;;8.10;83.10;;;;;;12542949;28;20052;-76
2024/01/16 21:56:13;;;;;;;44.83;41.28;;;8.10;83.10;;;;;;12560384;28;20040;-76
2024/01/16 22:02:17;;;;;;;30.10;27.23;;;8.10;83.30;;;;;;12559684;28;20040;-76
2024/01/16 22:08:19;;;;;;;32.88;30.05;;;8.10;83.20;;;;;;12609060;28;20028;-76
2024/01/16 22:14:21;;;;;;;29.95;27.20;;;8.10;83.20;;;;;;12641907;28;20036;-76
2024/01/16 22:20:23;;;;;;;45.13;42.03;;;8.10;83.20;;;;;;12658484;28;20038;-76
2024/01/16 22:26:25;;;;;;;52.92;49.88;;;8.10;83.10;;;;;;12640607;28;20036;-76
2024/01/16 22:32:28;;;;;;;26.63;24.20;;;8.10;83.20;;;;;;12658364;28;20039;-76
2024/01/16 22:38:30;;;;;;;35.53;32.92;;;8.00;83.20;;;;;;12657980;28;20040;-76
2024/01/16 22:44:32;;;;;;;30.85;28.35;;;7.80;83.10;;;;;;12657628;28;20028;-74
2024/01/16 22:50:34;;;;;;;23.15;19.77;;;7.60;83.60;;;;;;12657476;28;20459;-74
2024/01/16 22:56:35;;;;;;;23.23;19.55;;;7.50;83.90;;;;;;12662123;22;20032;-74
2024/01/16 23:02:39;;;;;;;36.63;33.55;;;7.60;83.80;;;;;;12640136;28;20337;-74
2024/01/16 23:08:42;;;;;;;32.25;29.55;;;7.60;83.80;;;;;;12639279;28;20035;-74
2024/01/16 23:14:53;;;;;;;53.80;50.35;;;7.70;83.60;;;;;;12656277;28;20459;-74
2024/01/16 23:20:54;;;;;;;29.15;26.52;;;7.70;83.50;;;;;;12655913;28;20043;-74
2024/01/16 23:27:12;;;;;;;28.60;26.05;;;7.80;83.70;;;;;;12637652;28;20047;-74
2024/01/16 23:33:14;;;;;;;34.33;31.55;;;7.80;83.70;;;;;;12636763;28;20031;-74
2024/01/16 23:39:16;;;;;;;38.88;35.78;;;7.80;83.70;;;;;;12637122;28;20348;-74
2024/01/16 23:45:18;;;;;;;24.33;21.92;;;7.90;84.00;;;;;;12637163;28;20466;-74
2024/01/16 23:51:20;;;;;;;30.05;27.40;;;7.70;84.10;;;;;;12654816;28;20031;-75
2024/01/16 23:57:21;;;;;;;29.45;26.90;;;7.80;84.20;;;;;;12654432;28;20348;-74
